sensor_id;sensor_type;location;lat;lon;timestamp;P1;durP1;ratioP1;P2;durP2;ratioP2
41897;SDS011;27576;53.366;-1.498;2022-07-09T00:01:52;3.10;;;2.70;;
41897;SDS011;27576;53.366;-1.498;2022-07-09T00:04:18;4.03;;;3.63;;
41897;SDS011;27576;53.366;-1.498;2022-07-09T00:06:44;3.45;;;3.15;;
41897;SDS011;27576;53.366;-1.498;2022-07-09T00:09:10;3.42;;;3.13;;
41897;SDS011;27576;53.366;-1.498;2022-07-09T00:11:35;4.40;;;3.42;;
41897;SDS011;27576;53.366;-1.498;2022-07-09T00:14:01;3.60;;;3.30;;
41897;SDS011;27576;53.366;-1.498;2022-07-09T00:16:26;4.40;;;3.58;;
41897;SDS011;27576;53.366;-1.498;2022-07-09T00:18:52;5.30;;;4.05;;
41897;SDS011;27576;53.366;-1.498;2022-07-09T00:21:17;4.55;;;3.70;;
41897;SDS011;27576;53.366;-1.498;2022-07-09T00:23:43;4.85;;;4.40;;
41897;SDS011;27576;53.366;-1.498;2022-07-09T00:26:08;5.55;;;4.32;;
41897;SDS011;27576;53.366;-1.498;2022-07-09T00:28:33;4.90;;;3.55;;
41897;SDS011;27576;53.366;-1.498;2022-07-09T00:30:59;5.38;;;4.88;;
41897;SDS011;27576;53.366;-1.498;2022-07-09T00:33:24;4.63;;;4.22;;
41897;SDS011;27576;53.366;-1.498;2022-07-09T00:35:50;5.78;;;5.15;;
41897;SDS011;27576;53.366;-1.498;2022-07-09T00:38:15;7.18;;;4.15;;
41897;SDS011;27576;53.366;-1.498;2022-07-09T00:40:41;4.38;;;3.55;;
41897;SDS011;27576;53.366;-1.498;2022-07-09T00:43:16;3.97;;;3.38;;
41897;SDS011;27576;53.366;-1.498;2022-07-09T00:45:42;3.55;;;3.25;;
41897;SDS011;27576;53.366;-1.498;2022-07-09T00:48:08;4.97;;;3.90;;
41897;SDS011;27576;53.366;-1.498;2022-07-09T00:50:34;4.18;;;3.78;;
41897;SDS011;27576;53.366;-1.498;2022-07-09T00:53:00;4.45;;;3.45;;
41897;SDS011;27576;53.366;-1.498;2022-07-09T00:55:26;3.40;;;3.10;;
41897;SDS011;27576;53.366;-1.498;2022-07-09T00:57:51;3.60;;;3.30;;
41897;SDS011;27576;53.366;-1.498;2022-07-09T01:00:17;3.83;;;3.42;;
41897;SDS011;27576;53.366;-1.498;2022-07-09T01:02:43;4.15;;;3.50;;
41897;SDS011;27576;53.366;-1.498;2022-07-09T01:05:10;3.90;;;3.53;;
41897;SDS011;27576;53.366;-1.498;2022-07-09T01:07:35;4.15;;;3.25;;
41897;SDS011;27576;53.366;-1.498;2022-07-09T01:10:01;4.40;;;3.70;;
41897;SDS011;27576;53.366;-1.498;2022-07-09T01:12:26;5.97;;;3.95;;
41897;SDS011;27576;53.366;-1.498;2022-07-09T01:14:52;4.53;;;3.67;;
41897;SDS011;27576;53.366;-1.498;2022-07-09T01:17:17;4.28;;;3.33;;
41897;SDS011;27576;53.366;-1.498;2022-07-09T01:19:43;5.18;;;3.97;;
41897;SDS011;27576;53.366;-1.498;2022-07-09T01:22:08;3.72;;;3.38;;
41897;SDS011;27576;53.366;-1.498;2022-07-09T01:24:34;3.78;;;2.80;;
41897;SDS011;27576;53.366;-1.498;2022-07-09T01:27:00;3.50;;;3.20;;
41897;SDS011;27576;53.366;-1.498;2022-07-09T01:29:25;4.57;;;2.92;;
41897;SDS011;27576;53.366;-1.498;2022-07-09T01:31:51;3.50;;;3.20;;
41897;SDS011;27576;53.366;-1.498;2022-07-09T01:34:16;3.08;;;2.45;;
41897;SDS011;27576;53.366;-1.498;2022-07-09T01:36:42;3.28;;;2.10;;
41897;SDS011;27576;53.366;-1.498;2022-07-09T01:39:07;2.33;;;2.13;;
41897;SDS011;27576;53.366;-1.498;2022-07-09T01:41:32;2.25;;;2.05;;
41897;SDS011;27576;53.366;-1.498;2022-07-09T01:43:58;2.60;;;2.40;;
41897;SDS011;27576;53.366;-1.498;2022-07-09T01:46:23;3.10;;;2.20;;
41897;SDS011;27576;53.366;-1.498;2022-07-09T01:48:49;2.80;;;2.40;;
41897;SDS011;27576;53.366;-1.498;2022-07-09T01:51:14;2.45;;;2.20;;
41897;SDS011;27576;53.366;-1.498;2022-07-09T01:53:40;2.33;;;2.08;;
41897;SDS011;27576;53.366;-1.498;2022-07-09T01:56:06;2.72;;;2.30;;
41897;SDS011;27576;53.366;-1.498;2022-07-09T01:58:33;2.17;;;1.75;;
41897;SDS011;27576;53.366;-1.498;2022-07-09T02:00:59;1.70;;;1.60;;
41897;SDS011;27576;53.366;-1.498;2022-07-09T02:03:24;2.58;;;1.70;;
41897;SDS011;27576;53.366;-1.498;2022-07-09T02:05:49;2.40;;;1.90;;
41897;SDS011;27576;53.366;-1.498;2022-07-09T02:08:15;3.88;;;1.80;;
41897;SDS011;27576;53.366;-1.498;2022-07-09T02:10:40;1.73;;;1.38;;
41897;SDS011;27576;53.366;-1.498;2022-07-09T02:13:06;1.70;;;1.50;;
41897;SDS011;27576;53.366;-1.498;2022-07-09T02:15:31;2.25;;;1.55;;
41897;SDS011;27576;53.366;-1.498;2022-07-09T02:17:57;1.80;;;1.42;;
41897;SDS011;27576;53.366;-1.498;2022-07-09T02:20:23;3.10;;;1.40;;
41897;SDS011;27576;53.366;-1.498;2022-07-09T02:22:49;3.28;;;1.65;;
41897;SDS011;27576;53.366;-1.498;2022-07-09T02:25:15;1.00;;;1.00;;
41897;SDS011;27576;53.366;-1.498;2022-07-09T02:27:41;1.08;;;1.08;;
41897;SDS011;27576;53.366;-1.498;2022-07-09T02:30:06;1.20;;;1.10;;
41897;SDS011;27576;53.366;-1.498;2022-07-09T02:32:32;2.38;;;1.00;;
41897;SDS011;27576;53.366;-1.498;2022-07-09T02:34:57;0.93;;;0.93;;
41897;SDS011;27576;53.366;-1.498;2022-07-09T02:37:23;1.20;;;1.10;;
41897;SDS011;27576;53.366;-1.498;2022-07-09T02:39:48;1.40;;;1.30;;
41897;SDS011;27576;53.366;-1.498;2022-07-09T02:42:14;1.65;;;1.00;;
41897;SDS011;27576;53.366;-1.498;2022-07-09T02:44:39;1.02;;;1.02;;
41897;SDS011;27576;53.366;-1.498;2022-07-09T02:47:08;1.20;;;1.10;;
41897;SDS011;27576;53.366;-1.498;2022-07-09T02:49:33;1.20;;;1.10;;
41897;SDS011;27576;53.366;-1.498;2022-07-09T02:51:59;1.10;;;1.10;;
41897;SDS011;27576;53.366;-1.498;2022-07-09T02:54:26;1.67;;;0.82;;
41897;SDS011;27576;53.366;-1.498;2022-07-09T02:56:52;1.63;;;0.88;;
41897;SDS011;27576;53.366;-1.498;2022-07-09T02:59:17;0.80;;;0.80;;
41897;SDS011;27576;53.366;-1.498;2022-07-09T03:01:43;1.13;;;0.90;;
41897;SDS011;27576;53.366;-1.498;2022-07-09T03:04:09;0.70;;;0.70;;
41897;SDS011;27576;53.366;-1.498;2022-07-09T03:06:34;0.63;;;0.63;;
41897;SDS011;27576;53.366;-1.498;2022-07-09T03:09:00;0.60;;;0.60;;
41897;SDS011;27576;53.366;-1.498;2022-07-09T03:11:25;1.10;;;1.05;;
41897;SDS011;27576;53.366;-1.498;2022-07-09T03:13:51;0.60;;;0.60;;
41897;SDS011;27576;53.366;-1.498;2022-07-09T03:16:17;0.80;;;0.80;;
41897;SDS011;27576;53.366;-1.498;2022-07-09T03:18:42;0.70;;;0.70;;
41897;SDS011;27576;53.366;-1.498;2022-07-09T03:21:08;0.50;;;0.50;;
41897;SDS011;27576;53.366;-1.498;2022-07-09T03:23:34;1.45;;;0.70;;
41897;SDS011;27576;53.366;-1.498;2022-07-09T03:25:59;1.02;;;0.55;;
41897;SDS011;27576;53.366;-1.498;2022-07-09T03:28:25;0.68;;;0.50;;
41897;SDS011;27576;53.366;-1.498;2022-07-09T03:30:51;0.47;;;0.47;;
41897;SDS011;27576;53.366;-1.498;2022-07-09T03:33:16;0.50;;;0.50;;
41897;SDS011;27576;53.366;-1.498;2022-07-09T03:35:42;0.35;;;0.35;;
41897;SDS011;27576;53.366;-1.498;2022-07-09T03:38:08;0.52;;;0.52;;
41897;SDS011;27576;53.366;-1.498;2022-07-09T03:40:34;0.40;;;0.40;;
41897;SDS011;27576;53.366;-1.498;2022-07-09T03:42:59;0.47;;;0.40;;
41897;SDS011;27576;53.366;-1.498;2022-07-09T03:45:24;0.30;;;0.30;;
41897;SDS011;27576;53.366;-1.498;2022-07-09T03:47:50;0.40;;;0.40;;
41897;SDS011;27576;53.366;-1.498;2022-07-09T03:50:15;0.40;;;0.40;;
41897;SDS011;27576;53.366;-1.498;2022-07-09T03:52:41;0.50;;;0.40;;
41897;SDS011;27576;53.366;-1.498;2022-07-09T03:55:06;0.43;;;0.40;;
41897;SDS011;27576;53.366;-1.498;2022-07-09T03:57:32;0.40;;;0.40;;
41897;SDS011;27576;53.366;-1.498;2022-07-09T03:59:58;0.40;;;0.40;;
41897;SDS011;27576;53.366;-1.498;2022-07-09T04:02:23;0.57;;;0.50;;
41897;SDS011;27576;53.366;-1.498;2022-07-09T04:04:48;0.35;;;0.35;;
41897;SDS011;27576;53.366;-1.498;2022-07-09T04:07:14;0.32;;;0.32;;
41897;SDS011;27576;53.366;-1.498;2022-07-09T04:09:40;0.30;;;0.30;;
41897;SDS011;27576;53.366;-1.498;2022-07-09T04:12:05;0.47;;;0.40;;
41897;SDS011;27576;53.366;-1.498;2022-07-09T04:14:31;0.32;;;0.32;;
41897;SDS011;27576;53.366;-1.498;2022-07-09T04:16:57;0.40;;;0.40;;
41897;SDS011;27576;53.366;-1.498;2022-07-09T04:19:22;0.40;;;0.40;;
41897;SDS011;27576;53.366;-1.498;2022-07-09T04:21:48;0.57;;;0.40;;
41897;SDS011;27576;53.366;-1.498;2022-07-09T04:24:13;0.30;;;0.30;;
41897;SDS011;27576;53.366;-1.498;2022-07-09T04:26:41;0.22;;;0.20;;
41897;SDS011;27576;53.366;-1.498;2022-07-09T04:29:06;0.40;;;0.40;;
41897;SDS011;27576;53.366;-1.498;2022-07-09T04:31:32;0.40;;;0.40;;
41897;SDS011;27576;53.366;-1.498;2022-07-09T04:33:57;0.30;;;0.30;;
41897;SDS011;27576;53.366;-1.498;2022-07-09T04:36:23;0.30;;;0.30;;
41897;SDS011;27576;53.366;-1.498;2022-07-09T04:38:48;0.50;;;0.50;;
41897;SDS011;27576;53.366;-1.498;2022-07-09T04:41:14;0.30;;;0.30;;
41897;SDS011;27576;53.366;-1.498;2022-07-09T04:43:39;1.88;;;0.40;;
41897;SDS011;27576;53.366;-1.498;2022-07-09T04:46:05;0.50;;;0.50;;
41897;SDS011;27576;53.366;-1.498;2022-07-09T04:48:30;0.40;;;0.40;;
41897;SDS011;27576;53.366;-1.498;2022-07-09T04:50:56;0.50;;;0.50;;
41897;SDS011;27576;53.366;-1.498;2022-07-09T04:53:22;2.15;;;0.40;;
41897;SDS011;27576;53.366;-1.498;2022-07-09T04:55:47;0.50;;;0.50;;
41897;SDS011;27576;53.366;-1.498;2022-07-09T04:58:13;0.30;;;0.30;;
41897;SDS011;27576;53.366;-1.498;2022-07-09T05:00:38;1.17;;;0.30;;
41897;SDS011;27576;53.366;-1.498;2022-07-09T05:03:04;0.50;;;0.50;;
41897;SDS011;27576;53.366;-1.498;2022-07-09T05:05:29;0.38;;;0.38;;
41897;SDS011;27576;53.366;-1.498;2022-07-09T05:07:54;0.88;;;0.45;;
41897;SDS011;27576;53.366;-1.498;2022-07-09T05:10:20;0.50;;;0.50;;
41897;SDS011;27576;53.366;-1.498;2022-07-09T05:12:46;0.50;;;0.50;;
41897;SDS011;27576;53.366;-1.498;2022-07-09T05:15:12;0.50;;;0.50;;
41897;SDS011;27576;53.366;-1.498;2022-07-09T05:17:39;0.40;;;0.40;;
41897;SDS011;27576;53.366;-1.498;2022-07-09T05:20:05;0.50;;;0.50;;
41897;SDS011;27576;53.366;-1.498;2022-07-09T05:22:32;0.40;;;0.40;;
41897;SDS011;27576;53.366;-1.498;2022-07-09T05:24:58;0.75;;;0.40;;
41897;SDS011;27576;53.366;-1.498;2022-07-09T05:27:24;0.40;;;0.40;;
41897;SDS011;27576;53.366;-1.498;2022-07-09T05:29:50;0.55;;;0.45;;
41897;SDS011;27576;53.366;-1.498;2022-07-09T05:32:16;0.40;;;0.40;;
41897;SDS011;27576;53.366;-1.498;2022-07-09T05:34:41;0.50;;;0.50;;
41897;SDS011;27576;53.366;-1.498;2022-07-09T05:37:07;0.60;;;0.60;;
41897;SDS011;27576;53.366;-1.498;2022-07-09T05:39:32;0.47;;;0.47;;
41897;SDS011;27576;53.366;-1.498;2022-07-09T05:41:57;0.30;;;0.30;;
41897;SDS011;27576;53.366;-1.498;2022-07-09T05:44:23;1.90;;;0.50;;
41897;SDS011;27576;53.366;-1.498;2022-07-09T05:46:48;0.40;;;0.40;;
41897;SDS011;27576;53.366;-1.498;2022-07-09T05:49:14;0.57;;;0.50;;
41897;SDS011;27576;53.366;-1.498;2022-07-09T05:51:39;0.40;;;0.40;;
41897;SDS011;27576;53.366;-1.498;2022-07-09T05:54:05;0.40;;;0.40;;
41897;SDS011;27576;53.366;-1.498;2022-07-09T05:56:31;0.40;;;0.40;;
41897;SDS011;27576;53.366;-1.498;2022-07-09T05:58:56;0.30;;;0.30;;
41897;SDS011;27576;53.366;-1.498;2022-07-09T06:01:22;0.40;;;0.40;;
41897;SDS011;27576;53.366;-1.498;2022-07-09T06:03:47;0.50;;;0.50;;
41897;SDS011;27576;53.366;-1.498;2022-07-09T06:06:13;1.10;;;0.50;;
41897;SDS011;27576;53.366;-1.498;2022-07-09T06:08:39;0.40;;;0.40;;
41897;SDS011;27576;53.366;-1.498;2022-07-09T06:11:04;0.50;;;0.40;;
41897;SDS011;27576;53.366;-1.498;2022-07-09T06:13:30;0.50;;;0.50;;
41897;SDS011;27576;53.366;-1.498;2022-07-09T06:15:55;0.45;;;0.45;;
41897;SDS011;27576;53.366;-1.498;2022-07-09T06:18:21;0.73;;;0.70;;
41897;SDS011;27576;53.366;-1.498;2022-07-09T06:20:49;0.55;;;0.50;;
41897;SDS011;27576;53.366;-1.498;2022-07-09T06:23:15;0.93;;;0.50;;
41897;SDS011;27576;53.366;-1.498;2022-07-09T06:25:40;0.63;;;0.45;;
41897;SDS011;27576;53.366;-1.498;2022-07-09T06:28:06;0.93;;;0.40;;
41897;SDS011;27576;53.366;-1.498;2022-07-09T06:30:31;0.60;;;0.60;;
41897;SDS011;27576;53.366;-1.498;2022-07-09T06:32:59;0.50;;;0.50;;
41897;SDS011;27576;53.366;-1.498;2022-07-09T06:35:24;0.47;;;0.47;;
41897;SDS011;27576;53.366;-1.498;2022-07-09T06:37:50;0.50;;;0.50;;
41897;SDS011;27576;53.366;-1.498;2022-07-09T06:40:15;1.33;;;0.43;;
41897;SDS011;27576;53.366;-1.498;2022-07-09T06:42:41;0.60;;;0.60;;
41897;SDS011;27576;53.366;-1.498;2022-07-09T06:45:07;0.93;;;0.57;;
41897;SDS011;27576;53.366;-1.498;2022-07-09T06:47:33;0.40;;;0.40;;
41897;SDS011;27576;53.366;-1.498;2022-07-09T06:49:58;0.60;;;0.60;;
41897;SDS011;27576;53.366;-1.498;2022-07-09T06:52:24;0.57;;;0.57;;
41897;SDS011;27576;53.366;-1.498;2022-07-09T06:54:49;0.50;;;0.50;;
41897;SDS011;27576;53.366;-1.498;2022-07-09T06:57:15;0.50;;;0.50;;
41897;SDS011;27576;53.366;-1.498;2022-07-09T06:59:41;0.40;;;0.40;;
41897;SDS011;27576;53.366;-1.498;2022-07-09T07:02:07;0.55;;;0.55;;
41897;SDS011;27576;53.366;-1.498;2022-07-09T07:04:33;0.60;;;0.60;;
41897;SDS011;27576;53.366;-1.498;2022-07-09T07:06:59;1.17;;;0.80;;
41897;SDS011;27576;53.366;-1.498;2022-07-09T07:09:25;0.98;;;0.60;;
41897;SDS011;27576;53.366;-1.498;2022-07-09T07:11:50;1.35;;;0.60;;
41897;SDS011;27576;53.366;-1.498;2022-07-09T07:14:16;0.45;;;0.45;;
41897;SDS011;27576;53.366;-1.498;2022-07-09T07:16:42;0.80;;;0.50;;
41897;SDS011;27576;53.366;-1.498;2022-07-09T07:19:09;1.27;;;0.65;;
41897;SDS011;27576;53.366;-1.498;2022-07-09T07:21:35;0.52;;;0.52;;
41897;SDS011;27576;53.366;-1.498;2022-07-09T07:24:01;0.60;;;0.57;;
41897;SDS011;27576;53.366;-1.498;2022-07-09T07:26:27;0.82;;;0.55;;
41897;SDS011;27576;53.366;-1.498;2022-07-09T07:28:52;0.90;;;0.60;;
41897;SDS011;27576;53.366;-1.498;2022-07-09T07:31:19;0.60;;;0.60;;
41897;SDS011;27576;53.366;-1.498;2022-07-09T07:33:44;0.57;;;0.57;;
41897;SDS011;27576;53.366;-1.498;2022-07-09T07:36:10;3.30;;;0.88;;
41897;SDS011;27576;53.366;-1.498;2022-07-09T07:38:35;0.52;;;0.50;;
41897;SDS011;27576;53.366;-1.498;2022-07-09T07:41:01;0.73;;;0.52;;
41897;SDS011;27576;53.366;-1.498;2022-07-09T07:43:26;0.60;;;0.60;;
41897;SDS011;27576;53.366;-1.498;2022-07-09T07:45:52;0.60;;;0.60;;
41897;SDS011;27576;53.366;-1.498;2022-07-09T07:48:17;0.75;;;0.70;;
41897;SDS011;27576;53.366;-1.498;2022-07-09T07:50:43;0.80;;;0.60;;
41897;SDS011;27576;53.366;-1.498;2022-07-09T07:53:08;0.65;;;0.65;;
41897;SDS011;27576;53.366;-1.498;2022-07-09T07:55:34;1.02;;;0.70;;
41897;SDS011;27576;53.366;-1.498;2022-07-09T07:57:59;0.82;;;0.50;;
41897;SDS011;27576;53.366;-1.498;2022-07-09T08:00:25;0.77;;;0.57;;
41897;SDS011;27576;53.366;-1.498;2022-07-09T08:02:51;0.60;;;0.57;;
41897;SDS011;27576;53.366;-1.498;2022-07-09T08:05:16;0.80;;;0.60;;
41897;SDS011;27576;53.366;-1.498;2022-07-09T08:07:42;1.08;;;0.70;;
41897;SDS011;27576;53.366;-1.498;2022-07-09T08:10:07;0.50;;;0.40;;
41897;SDS011;27576;53.366;-1.498;2022-07-09T08:12:33;0.45;;;0.43;;
41897;SDS011;27576;53.366;-1.498;2022-07-09T08:14:58;1.00;;;0.60;;
41897;SDS011;27576;53.366;-1.498;2022-07-09T08:17:24;0.52;;;0.52;;
41897;SDS011;27576;53.366;-1.498;2022-07-09T08:19:49;0.82;;;0.50;;
41897;SDS011;27576;53.366;-1.498;2022-07-09T08:22:15;0.68;;;0.68;;
41897;SDS011;27576;53.366;-1.498;2022-07-09T08:24:41;0.50;;;0.50;;
41897;SDS011;27576;53.366;-1.498;2022-07-09T08:27:06;0.50;;;0.50;;
41897;SDS011;27576;53.366;-1.498;2022-07-09T08:29:32;0.93;;;0.60;;
41897;SDS011;27576;53.366;-1.498;2022-07-09T08:31:57;0.80;;;0.60;;
41897;SDS011;27576;53.366;-1.498;2022-07-09T08:34:23;0.52;;;0.52;;
41897;SDS011;27576;53.366;-1.498;2022-07-09T08:36:48;1.10;;;0.68;;
41897;SDS011;27576;53.366;-1.498;2022-07-09T08:39:14;1.42;;;0.85;;
41897;SDS011;27576;53.366;-1.498;2022-07-09T08:41:39;0.68;;;0.68;;
41897;SDS011;27576;53.366;-1.498;2022-07-09T08:44:04;0.52;;;0.50;;
41897;SDS011;27576;53.366;-1.498;2022-07-09T08:46:34;0.60;;;0.60;;
41897;SDS011;27576;53.366;-1.498;2022-07-09T08:49:00;1.38;;;0.60;;
41897;SDS011;27576;53.366;-1.498;2022-07-09T08:51:26;0.70;;;0.65;;
41897;SDS011;27576;53.366;-1.498;2022-07-09T08:53:53;0.52;;;0.52;;
41897;SDS011;27576;53.366;-1.498;2022-07-09T08:56:20;1.73;;;0.50;;
41897;SDS011;27576;53.366;-1.498;2022-07-09T08:58:45;1.50;;;0.57;;
41897;SDS011;27576;53.366;-1.498;2022-07-09T09:01:12;0.32;;;0.32;;
41897;SDS011;27576;53.366;-1.498;2022-07-09T09:03:39;0.57;;;0.43;;
41897;SDS011;27576;53.366;-1.498;2022-07-09T09:06:07;0.73;;;0.50;;
41897;SDS011;27576;53.366;-1.498;2022-07-09T09:08:37;1.45;;;0.63;;
41897;SDS011;27576;53.366;-1.498;2022-07-09T09:11:12;0.60;;;0.60;;
41897;SDS011;27576;53.366;-1.498;2022-07-09T09:13:46;1.02;;;0.70;;
41897;SDS011;27576;53.366;-1.498;2022-07-09T09:16:13;0.82;;;0.65;;
41897;SDS011;27576;53.366;-1.498;2022-07-09T09:18:45;0.75;;;0.40;;
41897;SDS011;27576;53.366;-1.498;2022-07-09T09:21:14;0.50;;;0.50;;
41897;SDS011;27576;53.366;-1.498;2022-07-09T09:23:42;0.65;;;0.50;;
41897;SDS011;27576;53.366;-1.498;2022-07-09T09:26:10;0.43;;;0.43;;
41897;SDS011;27576;53.366;-1.498;2022-07-09T09:28:46;0.45;;;0.45;;
41897;SDS011;27576;53.366;-1.498;2022-07-09T09:33:45;1.08;;;0.50;;
41897;SDS011;27576;53.366;-1.498;2022-07-09T09:36:11;0.70;;;0.52;;
41897;SDS011;27576;53.366;-1.498;2022-07-09T09:38:36;0.80;;;0.55;;
41897;SDS011;27576;53.366;-1.498;2022-07-09T09:41:02;1.48;;;0.90;;
41897;SDS011;27576;53.366;-1.498;2022-07-09T09:43:27;1.17;;;0.95;;
41897;SDS011;27576;53.366;-1.498;2022-07-09T09:45:55;1.02;;;0.60;;
41897;SDS011;27576;53.366;-1.498;2022-07-09T09:48:24;0.47;;;0.47;;
41897;SDS011;27576;53.366;-1.498;2022-07-09T09:50:51;0.50;;;0.50;;
41897;SDS011;27576;53.366;-1.498;2022-07-09T09:53:20;1.77;;;0.47;;
41897;SDS011;27576;53.366;-1.498;2022-07-09T09:55:46;2.15;;;0.55;;
41897;SDS011;27576;53.366;-1.498;2022-07-09T09:58:12;0.77;;;0.50;;
41897;SDS011;27576;53.366;-1.498;2022-07-09T10:00:38;1.67;;;0.60;;
41897;SDS011;27576;53.366;-1.498;2022-07-09T10:03:04;0.57;;;0.57;;
41897;SDS011;27576;53.366;-1.498;2022-07-09T10:05:31;1.08;;;0.60;;
41897;SDS011;27576;53.366;-1.498;2022-07-09T10:07:57;1.48;;;0.63;;
41897;SDS011;27576;53.366;-1.498;2022-07-09T10:10:23;0.95;;;0.88;;
41897;SDS011;27576;53.366;-1.498;2022-07-09T10:12:49;0.55;;;0.52;;
41897;SDS011;27576;53.366;-1.498;2022-07-09T10:15:24;0.50;;;0.50;;
41897;SDS011;27576;53.366;-1.498;2022-07-09T10:17:53;1.08;;;0.57;;
41897;SDS011;27576;53.366;-1.498;2022-07-09T10:20:32;2.00;;;0.60;;
41897;SDS011;27576;53.366;-1.498;2022-07-09T10:23:02;0.60;;;0.60;;
41897;SDS011;27576;53.366;-1.498;2022-07-09T10:25:29;1.25;;;0.75;;
41897;SDS011;27576;53.366;-1.498;2022-07-09T10:27:56;0.63;;;0.50;;
41897;SDS011;27576;53.366;-1.498;2022-07-09T10:30:25;1.13;;;0.57;;
41897;SDS011;27576;53.366;-1.498;2022-07-09T10:33:03;1.60;;;0.60;;
41897;SDS011;27576;53.366;-1.498;2022-07-09T10:35:42;0.52;;;0.50;;
41897;SDS011;27576;53.366;-1.498;2022-07-09T10:38:09;1.55;;;0.68;;
41897;SDS011;27576;53.366;-1.498;2022-07-09T10:43:04;1.00;;;0.70;;
41897;SDS011;27576;53.366;-1.498;2022-07-09T10:45:40;0.80;;;0.68;;
41897;SDS011;27576;53.366;-1.498;2022-07-09T10:48:07;0.82;;;0.50;;
41897;SDS011;27576;53.366;-1.498;2022-07-09T10:50:41;1.27;;;0.73;;
41897;SDS011;27576;53.366;-1.498;2022-07-09T10:53:08;0.40;;;0.40;;
41897;SDS011;27576;53.366;-1.498;2022-07-09T10:55:36;1.48;;;0.82;;
41897;SDS011;27576;53.366;-1.498;2022-07-09T10:58:02;0.82;;;0.65;;
41897;SDS011;27576;53.366;-1.498;2022-07-09T11:00:32;1.38;;;0.85;;
41897;SDS011;27576;53.366;-1.498;2022-07-09T11:03:03;1.00;;;0.50;;
41897;SDS011;27576;53.366;-1.498;2022-07-09T11:05:33;0.57;;;0.40;;
41897;SDS011;27576;53.366;-1.498;2022-07-09T11:08:08;1.15;;;0.50;;
41897;SDS011;27576;53.366;-1.498;2022-07-09T11:10:35;1.60;;;0.70;;
41897;SDS011;27576;53.366;-1.498;2022-07-09T11:13:02;1.83;;;0.50;;
41897;SDS011;27576;53.366;-1.498;2022-07-09T11:15:31;3.15;;;0.90;;
41897;SDS011;27576;53.366;-1.498;2022-07-09T11:20:45;3.22;;;0.65;;
41897;SDS011;27576;53.366;-1.498;2022-07-09T11:23:12;1.35;;;0.60;;
41897;SDS011;27576;53.366;-1.498;2022-07-09T11:25:39;1.55;;;0.77;;
41897;SDS011;27576;53.366;-1.498;2022-07-09T11:28:05;2.67;;;0.70;;
41897;SDS011;27576;53.366;-1.498;2022-07-09T11:30:31;1.85;;;0.88;;
41897;SDS011;27576;53.366;-1.498;2022-07-09T11:33:01;1.98;;;0.63;;
41897;SDS011;27576;53.366;-1.498;2022-07-09T11:35:31;0.60;;;0.50;;
41897;SDS011;27576;53.366;-1.498;2022-07-09T11:38:02;1.25;;;0.60;;
41897;SDS011;27576;53.366;-1.498;2022-07-09T11:40:29;1.90;;;1.15;;
41897;SDS011;27576;53.366;-1.498;2022-07-09T11:42:55;3.22;;;0.70;;
41897;SDS011;27576;53.366;-1.498;2022-07-09T11:45:25;0.60;;;0.50;;
41897;SDS011;27576;53.366;-1.498;2022-07-09T11:48:02;2.72;;;0.90;;
41897;SDS011;27576;53.366;-1.498;2022-07-09T11:50:32;1.35;;;0.60;;
41897;SDS011;27576;53.366;-1.498;2022-07-09T11:52:58;1.05;;;0.57;;
41897;SDS011;27576;53.366;-1.498;2022-07-09T11:55:28;1.15;;;0.60;;
41897;SDS011;27576;53.366;-1.498;2022-07-09T11:57:56;1.95;;;0.80;;
41897;SDS011;27576;53.366;-1.498;2022-07-09T12:00:26;0.40;;;0.40;;
41897;SDS011;27576;53.366;-1.498;2022-07-09T12:02:53;1.13;;;0.52;;
41897;SDS011;27576;53.366;-1.498;2022-07-09T12:05:24;3.83;;;0.80;;
41897;SDS011;27576;53.366;-1.498;2022-07-09T12:07:58;4.97;;;0.82;;
41897;SDS011;27576;53.366;-1.498;2022-07-09T12:10:27;5.60;;;0.88;;
41897;SDS011;27576;53.366;-1.498;2022-07-09T12:12:55;0.50;;;0.50;;
41897;SDS011;27576;53.366;-1.498;2022-07-09T12:15:21;0.60;;;0.55;;
41897;SDS011;27576;53.366;-1.498;2022-07-09T12:17:51;1.30;;;0.57;;
41897;SDS011;27576;53.366;-1.498;2022-07-09T12:20:17;0.90;;;0.55;;
41897;SDS011;27576;53.366;-1.498;2022-07-09T12:22:43;0.95;;;0.40;;
41897;SDS011;27576;53.366;-1.498;2022-07-09T12:25:09;1.17;;;0.70;;
41897;SDS011;27576;53.366;-1.498;2022-07-09T12:27:34;0.85;;;0.47;;
41897;SDS011;27576;53.366;-1.498;2022-07-09T12:30:00;1.20;;;0.75;;
41897;SDS011;27576;53.366;-1.498;2022-07-09T12:32:25;1.67;;;0.80;;
41897;SDS011;27576;53.366;-1.498;2022-07-09T12:34:51;1.52;;;0.80;;
41897;SDS011;27576;53.366;-1.498;2022-07-09T12:37:16;0.85;;;0.57;;
41897;SDS011;27576;53.366;-1.498;2022-07-09T12:39:41;1.38;;;0.63;;
41897;SDS011;27576;53.366;-1.498;2022-07-09T12:42:08;0.82;;;0.60;;
41897;SDS011;27576;53.366;-1.498;2022-07-09T12:44:33;1.65;;;0.63;;
41897;SDS011;27576;53.366;-1.498;2022-07-09T12:46:59;2.20;;;0.70;;
41897;SDS011;27576;53.366;-1.498;2022-07-09T12:49:24;0.95;;;0.70;;
41897;SDS011;27576;53.366;-1.498;2022-07-09T12:51:50;3.15;;;0.77;;
41897;SDS011;27576;53.366;-1.498;2022-07-09T12:54:15;1.50;;;0.60;;
41897;SDS011;27576;53.366;-1.498;2022-07-09T12:56:41;1.75;;;0.70;;
41897;SDS011;27576;53.366;-1.498;2022-07-09T12:59:06;1.92;;;1.35;;
41897;SDS011;27576;53.366;-1.498;2022-07-09T13:01:31;0.60;;;0.60;;
41897;SDS011;27576;53.366;-1.498;2022-07-09T13:03:57;1.88;;;0.90;;
41897;SDS011;27576;53.366;-1.498;2022-07-09T13:06:22;1.83;;;0.70;;
41897;SDS011;27576;53.366;-1.498;2022-07-09T13:08:57;1.38;;;0.68;;
41897;SDS011;27576;53.366;-1.498;2022-07-09T13:11:24;0.95;;;0.60;;
41897;SDS011;27576;53.366;-1.498;2022-07-09T13:13:50;0.70;;;0.52;;
41897;SDS011;27576;53.366;-1.498;2022-07-09T13:16:15;2.88;;;0.60;;
41897;SDS011;27576;53.366;-1.498;2022-07-09T13:18:41;1.23;;;0.68;;
41897;SDS011;27576;53.366;-1.498;2022-07-09T13:21:06;1.05;;;0.80;;
41897;SDS011;27576;53.366;-1.498;2022-07-09T13:23:32;0.90;;;0.52;;
41897;SDS011;27576;53.366;-1.498;2022-07-09T13:25:58;6.53;;;0.80;;
41897;SDS011;27576;53.366;-1.498;2022-07-09T13:28:23;0.75;;;0.40;;
41897;SDS011;27576;53.366;-1.498;2022-07-09T13:30:49;1.73;;;0.65;;
41897;SDS011;27576;53.366;-1.498;2022-07-09T13:33:14;1.65;;;0.70;;
41897;SDS011;27576;53.366;-1.498;2022-07-09T13:35:40;0.70;;;0.50;;
41897;SDS011;27576;53.366;-1.498;2022-07-09T13:38:06;1.08;;;0.60;;
41897;SDS011;27576;53.366;-1.498;2022-07-09T13:40:31;1.02;;;0.50;;
41897;SDS011;27576;53.366;-1.498;2022-07-09T13:42:57;0.63;;;0.60;;
41897;SDS011;27576;53.366;-1.498;2022-07-09T13:45:22;0.90;;;0.60;;
41897;SDS011;27576;53.366;-1.498;2022-07-09T13:47:48;0.60;;;0.40;;
41897;SDS011;27576;53.366;-1.498;2022-07-09T13:50:14;0.73;;;0.38;;
41897;SDS011;27576;53.366;-1.498;2022-07-09T13:52:39;0.98;;;0.50;;
41897;SDS011;27576;53.366;-1.498;2022-07-09T13:55:05;1.02;;;0.57;;
41897;SDS011;27576;53.366;-1.498;2022-07-09T13:57:30;1.38;;;0.60;;
41897;SDS011;27576;53.366;-1.498;2022-07-09T13:59:56;1.70;;;0.90;;
41897;SDS011;27576;53.366;-1.498;2022-07-09T14:02:21;2.60;;;0.65;;
41897;SDS011;27576;53.366;-1.498;2022-07-09T14:04:47;2.15;;;0.70;;
41897;SDS011;27576;53.366;-1.498;2022-07-09T14:07:14;1.98;;;0.80;;
41897;SDS011;27576;53.366;-1.498;2022-07-09T14:09:40;2.30;;;0.95;;
41897;SDS011;27576;53.366;-1.498;2022-07-09T14:12:06;1.10;;;0.77;;
41897;SDS011;27576;53.366;-1.498;2022-07-09T14:14:31;0.88;;;0.60;;
41897;SDS011;27576;53.366;-1.498;2022-07-09T14:16:57;8.05;;;1.00;;
41897;SDS011;27576;53.366;-1.498;2022-07-09T14:19:22;1.70;;;1.10;;
41897;SDS011;27576;53.366;-1.498;2022-07-09T14:21:47;0.82;;;0.50;;
41897;SDS011;27576;53.366;-1.498;2022-07-09T14:24:13;3.75;;;1.10;;
41897;SDS011;27576;53.366;-1.498;2022-07-09T14:26:38;1.38;;;1.10;;
41897;SDS011;27576;53.366;-1.498;2022-07-09T14:29:06;1.35;;;0.70;;
41897;SDS011;27576;53.366;-1.498;2022-07-09T14:31:32;2.35;;;1.05;;
41897;SDS011;27576;53.366;-1.498;2022-07-09T14:33:57;1.10;;;0.65;;
41897;SDS011;27576;53.366;-1.498;2022-07-09T14:36:23;1.98;;;0.90;;